createdAt,value
2024-01-09T00:00:34.286Z,-6.42
2024-01-09T00:01:57.557Z,-6.49
2024-01-09T00:03:20.461Z,-6.62
2024-01-09T00:04:42.353Z,-6.69
2024-01-09T00:06:06.002Z,-6.61
2024-01-09T00:07:28.010Z,-6.50
2024-01-09T00:08:51.061Z,-6.82
2024-01-09T00:10:13.140Z,-7.11
2024-01-09T00:11:36.055Z,-7.06
2024-01-09T00:12:58.867Z,-6.82
2024-01-09T00:14:21.776Z,-7.12
2024-01-09T00:15:43.825Z,-7.16
2024-01-09T00:17:08.092Z,-6.86
2024-01-09T00:18:30.080Z,-6.89
2024-01-09T00:19:53.059Z,-6.80
2024-01-09T00:21:15.006Z,-6.78
2024-01-09T00:22:37.901Z,-6.69
2024-01-09T00:23:59.782Z,-6.82
2024-01-09T00:25:22.653Z,-7.04
2024-01-09T00:26:45.272Z,-6.89
2024-01-09T00:28:08.185Z,-6.93
2024-01-09T00:29:30.203Z,-6.79
2024-01-09T00:30:56.086Z,-6.71
2024-01-09T00:32:19.475Z,-6.84
2024-01-09T00:33:42.561Z,-6.88
2024-01-09T00:35:05.606Z,-7.05
2024-01-09T00:36:28.507Z,-7.35
2024-01-09T00:37:50.433Z,-7.08
2024-01-09T00:39:13.464Z,-6.81
2024-01-09T00:40:35.365Z,-6.95
2024-01-09T00:41:58.237Z,-7.17
2024-01-09T00:43:20.291Z,-7.00
2024-01-09T00:44:43.468Z,-7.06
2024-01-09T00:46:05.412Z,-7.02
2024-01-09T00:47:31.060Z,-7.26
2024-01-09T00:48:53.180Z,-7.06
2024-01-09T00:50:22.179Z,-6.94
2024-01-09T00:51:44.059Z,-6.91
2024-01-09T00:53:07.405Z,-7.69
2024-01-09T00:54:29.841Z,-7.81
2024-01-09T00:55:52.910Z,-7.40
2024-01-09T00:57:14.821Z,-7.13
2024-01-09T00:58:37.657Z,-7.14
2024-01-09T00:59:59.575Z,-6.91
2024-01-09T01:01:22.485Z,-6.81
2024-01-09T01:02:45.723Z,-6.64
2024-01-09T01:04:08.649Z,-6.64
2024-01-09T01:05:30.884Z,-6.59
2024-01-09T01:06:53.842Z,-6.54
2024-01-09T01:08:15.744Z,-6.60
2024-01-09T01:09:39.572Z,-6.66
2024-01-09T01:11:01.595Z,-6.71
2024-01-09T01:12:24.943Z,-6.58
2024-01-09T01:13:47.032Z,-6.63
2024-01-09T01:15:10.865Z,-6.70
2024-01-09T01:16:32.905Z,-6.64
2024-01-09T01:17:57.178Z,-6.62
2024-01-09T01:19:21.292Z,-6.65
2024-01-09T01:20:44.213Z,-7.00
2024-01-09T01:22:06.189Z,-7.25
2024-01-09T01:23:29.067Z,-7.60
2024-01-09T01:24:50.998Z,-7.80
2024-01-09T01:26:13.938Z,-8.18
2024-01-09T01:27:35.839Z,-8.24
2024-01-09T01:28:58.675Z,-8.22
2024-01-09T01:30:20.697Z,-8.34
2024-01-09T01:31:43.722Z,-8.32
2024-01-09T01:33:07.278Z,-7.81
2024-01-09T01:34:30.472Z,-7.50
2024-01-09T01:35:52.516Z,-7.71
2024-01-09T01:37:15.431Z,-7.82
2024-01-09T01:38:37.356Z,-8.04
2024-01-09T01:40:00.270Z,-7.65
2024-01-09T01:41:22.245Z,-7.28
2024-01-09T01:42:45.159Z,-6.98
2024-01-09T01:44:16.395Z,-7.03
2024-01-09T01:45:39.284Z,-7.26
2024-01-09T01:47:01.609Z,-7.14
2024-01-09T01:48:26.535Z,-7.39
2024-01-09T01:49:48.972Z,-7.41
2024-01-09T01:51:11.843Z,-7.83
2024-01-09T01:52:33.917Z,-7.55
2024-01-09T01:53:57.146Z,-7.31
2024-01-09T01:55:26.006Z,-7.03
2024-01-09T01:56:49.504Z,-6.95
2024-01-09T01:58:11.861Z,-6.88
2024-01-09T01:59:39.386Z,-6.85
2024-01-09T02:01:02.157Z,-7.39
2024-01-09T02:02:25.222Z,-7.40
2024-01-09T02:03:49.139Z,-7.55
2024-01-09T02:05:13.106Z,-7.40
2024-01-09T02:06:35.257Z,-7.17
2024-01-09T02:07:59.671Z,-7.07
2024-01-09T02:09:21.961Z,-7.19
2024-01-09T02:10:44.786Z,-7.04
2024-01-09T02:12:07.594Z,-6.99
2024-01-09T02:13:30.445Z,-7.02
2024-01-09T02:14:52.416Z,-7.23
2024-01-09T02:16:15.321Z,-7.22
2024-01-09T02:17:37.774Z,-7.48
2024-01-09T02:19:01.989Z,-7.51
2024-01-09T02:20:24.117Z,-7.73
2024-01-09T02:21:48.479Z,-7.60
2024-01-09T02:23:10.376Z,-7.56
2024-01-09T02:24:33.519Z,-7.32
2024-01-09T02:26:06.736Z,-7.18
2024-01-09T02:27:41.088Z,-7.20
2024-01-09T02:29:08.968Z,-7.19
2024-01-09T02:30:33.621Z,-7.01
2024-01-09T02:31:55.678Z,-7.21
2024-01-09T02:33:18.684Z,-7.14
2024-01-09T02:34:42.360Z,-7.13
2024-01-09T02:36:05.949Z,-7.23
2024-01-09T02:37:27.868Z,-7.05
2024-01-09T02:38:50.744Z,-7.06
2024-01-09T02:40:12.684Z,-7.48
2024-01-09T02:41:40.488Z,-7.47
2024-01-09T02:43:02.424Z,-7.51
2024-01-09T02:44:26.357Z,-7.31
2024-01-09T02:45:49.606Z,-7.51
2024-01-09T02:47:12.459Z,-7.59
2024-01-09T02:48:35.244Z,-7.33
2024-01-09T02:49:58.171Z,-7.24
2024-01-09T02:51:20.074Z,-7.37
2024-01-09T02:52:43.129Z,-7.30
2024-01-09T02:54:05.300Z,-7.24
2024-01-09T02:55:28.164Z,-7.22
2024-01-09T02:56:51.273Z,-7.37
2024-01-09T02:58:14.193Z,-7.21
2024-01-09T02:59:36.369Z,-7.37
2024-01-09T03:01:02.620Z,-7.23
2024-01-09T03:02:24.714Z,-7.11
2024-01-09T03:03:47.690Z,-7.02
2024-01-09T03:05:09.934Z,-7.22
2024-01-09T03:06:32.987Z,-8.22
2024-01-09T03:07:55.025Z,-9.02
2024-01-09T03:09:18.616Z,-8.95
2024-01-09T03:10:41.478Z,-8.49
2024-01-09T03:12:05.017Z,-8.46
2024-01-09T03:13:27.848Z,-8.10
2024-01-09T03:14:49.887Z,-8.35
2024-01-09T03:16:14.353Z,-9.15
2024-01-09T03:17:36.311Z,-9.24
2024-01-09T03:18:59.285Z,-9.02
2024-01-09T03:20:21.265Z,-8.92
2024-01-09T03:21:44.212Z,-8.57
2024-01-09T03:23:06.178Z,-8.15
2024-01-09T03:24:29.034Z,-8.29
2024-01-09T03:25:50.963Z,-7.96
2024-01-09T03:27:14.090Z,-8.09
2024-01-09T03:28:37.746Z,-8.32
2024-01-09T03:30:00.734Z,-8.18
2024-01-09T03:31:24.826Z,-8.12
2024-01-09T03:32:47.765Z,-7.98
2024-01-09T03:34:09.743Z,-7.82
2024-01-09T03:35:32.689Z,-7.82
2024-01-09T03:36:54.698Z,-7.99
2024-01-09T03:38:17.625Z,-7.94
2024-01-09T03:39:39.668Z,-7.92
2024-01-09T03:41:03.392Z,-7.79
2024-01-09T03:42:25.271Z,-7.79
2024-01-09T03:43:48.087Z,-7.84
2024-01-09T03:45:10.300Z,-8.01
2024-01-09T03:46:34.649Z,-7.86
2024-01-09T03:47:56.621Z,-8.09
2024-01-09T03:49:19.549Z,-8.35
2024-01-09T03:50:41.606Z,-8.34
2024-01-09T03:52:04.610Z,-8.07
2024-01-09T03:53:26.671Z,-7.98
2024-01-09T03:54:49.581Z,-8.07
2024-01-09T03:56:11.533Z,-7.94
2024-01-09T03:57:34.421Z,-7.90
2024-01-09T03:58:56.323Z,-8.00
2024-01-09T04:00:19.613Z,-8.12
2024-01-09T04:01:42.926Z,-8.03
2024-01-09T04:03:06.479Z,-8.37
2024-01-09T04:04:29.201Z,-8.23
2024-01-09T04:05:52.323Z,-8.21
2024-01-09T04:07:15.153Z,-8.35
2024-01-09T04:08:38.068Z,-8.22
2024-01-09T04:09:59.961Z,-8.06
2024-01-09T04:11:22.813Z,-8.04
2024-01-09T04:12:44.722Z,-8.35
2024-01-09T04:14:07.638Z,-8.45
2024-01-09T04:15:29.546Z,-8.31
2024-01-09T04:16:54.051Z,-8.53
2024-01-09T04:18:16.287Z,-8.49
2024-01-09T04:19:39.897Z,-8.17
2024-01-09T04:21:01.918Z,-8.03
2024-01-09T04:22:24.756Z,-7.95
2024-01-09T04:23:46.689Z,-8.06
2024-01-09T04:25:10.336Z,-8.64
2024-01-09T04:26:32.325Z,-8.43
2024-01-09T04:27:55.292Z,-8.78
2024-01-09T04:29:17.286Z,-9.42
2024-01-09T04:30:40.218Z,-9.59
2024-01-09T04:32:03.668Z,-9.66
2024-01-09T04:33:26.682Z,-9.29
2024-01-09T04:34:48.799Z,-9.03
2024-01-09T04:36:16.806Z,-8.99
2024-01-09T04:37:38.711Z,-8.70
2024-01-09T04:39:02.264Z,-8.58
2024-01-09T04:40:24.445Z,-8.32
2024-01-09T04:41:47.703Z,-8.19
2024-01-09T04:43:09.615Z,-8.17
2024-01-09T04:44:32.491Z,-8.26
2024-01-09T04:45:54.523Z,-8.32
2024-01-09T04:47:19.031Z,-8.32
2024-01-09T04:48:41.200Z,-8.11
2024-01-09T04:50:04.338Z,-8.20
2024-01-09T04:51:26.258Z,-8.10
2024-01-09T04:52:49.113Z,-8.35
2024-01-09T04:54:11.002Z,-8.36
2024-01-09T04:55:33.861Z,-8.08
2024-01-09T04:56:58.552Z,-7.95
2024-01-09T04:58:22.542Z,-7.93
2024-01-09T04:59:44.510Z,-7.84
2024-01-09T05:01:12.028Z,-7.81
2024-01-09T05:02:35.409Z,-8.21
2024-01-09T05:03:58.436Z,-8.15
2024-01-09T05:05:20.444Z,-8.09
2024-01-09T05:06:43.323Z,-8.43
2024-01-09T05:08:05.523Z,-8.24
2024-01-09T05:09:28.516Z,-8.41
2024-01-09T05:10:50.464Z,-8.25
2024-01-09T05:12:13.293Z,-8.07
2024-01-09T05:13:35.346Z,-8.23
2024-01-09T05:14:58.249Z,-8.25
2024-01-09T05:16:20.222Z,-8.17
2024-01-09T05:17:44.533Z,-8.25
2024-01-09T05:19:06.699Z,-8.30
2024-01-09T05:20:29.656Z,-8.15
2024-01-09T05:21:51.639Z,-8.09
2024-01-09T05:23:14.562Z,-7.95
2024-01-09T05:24:36.524Z,-8.19
2024-01-09T05:25:59.423Z,-8.28
2024-01-09T05:27:21.488Z,-8.37
2024-01-09T05:28:44.341Z,-8.68
2024-01-09T05:30:08.533Z,-8.94
2024-01-09T05:31:31.453Z,-8.55
2024-01-09T05:32:55.007Z,-8.65
2024-01-09T05:34:18.378Z,-8.55
2024-01-09T05:35:40.556Z,-8.56
2024-01-09T05:37:06.279Z,-8.45
2024-01-09T05:38:28.252Z,-8.74
2024-01-09T05:39:51.111Z,-8.93
2024-01-09T05:41:19.762Z,-8.61
2024-01-09T05:42:44.228Z,-8.36
2024-01-09T05:44:06.352Z,-8.36
2024-01-09T05:45:29.202Z,-8.30
2024-01-09T05:46:51.413Z,-8.17
2024-01-09T05:48:15.731Z,-8.32
2024-01-09T05:49:37.798Z,-8.06
2024-01-09T05:51:00.643Z,-8.21
2024-01-09T05:52:22.939Z,-8.75
2024-01-09T05:53:47.840Z,-9.21
2024-01-09T05:55:10.525Z,-9.38
2024-01-09T05:56:33.477Z,-9.07
2024-01-09T05:57:55.508Z,-8.85
2024-01-09T05:59:18.332Z,-9.01
2024-01-09T06:00:40.282Z,-9.11
2024-01-09T06:02:03.161Z,-8.88
2024-01-09T06:03:26.360Z,-8.76
2024-01-09T06:04:52.529Z,-8.67
2024-01-09T06:06:14.734Z,-8.73
2024-01-09T06:07:37.598Z,-8.93
2024-01-09T06:08:59.506Z,-8.68
2024-01-09T06:10:22.422Z,-9.16
2024-01-09T06:11:44.322Z,-9.31
2024-01-09T06:13:07.172Z,-9.47
2024-01-09T06:14:29.078Z,-9.48
2024-01-09T06:15:51.986Z,-9.19
2024-01-09T06:17:14.192Z,-8.82
2024-01-09T06:18:38.539Z,-8.57
2024-01-09T06:20:02.451Z,-8.63
2024-01-09T06:21:25.542Z,-8.51
2024-01-09T06:22:47.549Z,-8.68
2024-01-09T06:24:10.393Z,-8.48
2024-01-09T06:25:32.391Z,-8.26
2024-01-09T06:26:55.301Z,-8.98
2024-01-09T06:28:18.246Z,-9.15
2024-01-09T06:29:40.212Z,-9.07
2024-01-09T06:31:03.115Z,-8.70
2024-01-09T06:32:25.227Z,-8.60
2024-01-09T06:33:50.136Z,-8.62
2024-01-09T06:35:12.226Z,-8.59
2024-01-09T06:36:35.117Z,-8.34
2024-01-09T06:37:57.143Z,-8.14
2024-01-09T06:39:20.190Z,-8.48
2024-01-09T06:40:43.494Z,-8.85
2024-01-09T06:42:05.928Z,-8.66
2024-01-09T06:43:29.163Z,-8.59
2024-01-09T06:44:51.121Z,-8.47
2024-01-09T06:46:13.998Z,-8.59
2024-01-09T06:47:36.141Z,-8.42
2024-01-09T06:49:00.804Z,-8.80
2024-01-09T06:50:33.123Z,-8.50
2024-01-09T06:52:00.273Z,-8.40
2024-01-09T06:53:22.299Z,-8.52
2024-01-09T06:54:45.277Z,-8.30
2024-01-09T06:56:07.494Z,-8.26
2024-01-09T06:57:30.866Z,-8.48
2024-01-09T06:58:54.178Z,-8.26
2024-01-09T07:00:17.929Z,-8.15
2024-01-09T07:01:39.875Z,-8.20
2024-01-09T07:03:02.898Z,-8.32
2024-01-09T07:04:27.871Z,-8.40
2024-01-09T07:05:50.890Z,-8.76
2024-01-09T07:07:13.931Z,-8.68
2024-01-09T07:08:36.815Z,-8.72
2024-01-09T07:09:58.760Z,-8.76
2024-01-09T07:11:21.631Z,-8.87
2024-01-09T07:12:44.155Z,-8.65
2024-01-09T07:14:08.520Z,-8.43
2024-01-09T07:15:30.656Z,-8.40
2024-01-09T07:16:53.609Z,-8.64
2024-01-09T07:18:15.692Z,-9.17
2024-01-09T07:19:40.025Z,-9.47
2024-01-09T07:21:02.146Z,-9.18
2024-01-09T07:22:25.057Z,-8.88
2024-01-09T07:23:48.365Z,-8.87
2024-01-09T07:25:11.961Z,-9.23
2024-01-09T07:26:39.448Z,-9.18
2024-01-09T07:28:03.170Z,-8.88
2024-01-09T07:29:25.208Z,-8.77
2024-01-09T07:30:49.273Z,-9.13
2024-01-09T07:32:11.281Z,-8.94
2024-01-09T07:33:34.591Z,-8.82
2024-01-09T07:34:57.980Z,-8.77
2024-01-09T07:36:20.780Z,-8.54
2024-01-09T07:37:42.683Z,-9.22
2024-01-09T07:39:06.894Z,-9.54
2024-01-09T07:40:28.798Z,-9.25
2024-01-09T07:41:51.801Z,-8.75
2024-01-09T07:43:13.714Z,-8.43
2024-01-09T07:44:36.688Z,-8.23
2024-01-09T07:45:58.588Z,-8.13
2024-01-09T07:47:22.461Z,-8.56
2024-01-09T07:48:44.593Z,-8.71
2024-01-09T07:50:09.540Z,-8.54
2024-01-09T07:51:32.047Z,-8.86
2024-01-09T07:52:54.920Z,-8.66
2024-01-09T07:54:16.852Z,-8.71
2024-01-09T07:55:39.685Z,-8.92
2024-01-09T07:57:01.935Z,-9.19
2024-01-09T07:58:25.380Z,-9.15
2024-01-09T07:59:47.332Z,-8.77
2024-01-09T08:01:10.404Z,-8.70
2024-01-09T08:02:32.953Z,-8.71
2024-01-09T08:03:55.882Z,-8.92
2024-01-09T08:05:19.460Z,-9.09
2024-01-09T08:06:42.846Z,-8.74
2024-01-09T08:08:05.725Z,-8.89
2024-01-09T08:09:28.552Z,-8.88
2024-01-09T08:10:50.467Z,-8.76
2024-01-09T08:12:13.382Z,-8.84
2024-01-09T08:13:35.549Z,-8.88
2024-01-09T08:14:58.492Z,-8.65
2024-01-09T08:16:20.464Z,-8.76
2024-01-09T08:17:43.357Z,-8.89
2024-01-09T08:19:06.028Z,-8.70
2024-01-09T08:20:30.822Z,-8.56
2024-01-09T08:21:52.761Z,-8.63
2024-01-09T08:23:16.021Z,-8.28
2024-01-09T08:24:38.251Z,-8.01
2024-01-09T08:26:01.087Z,-8.29
2024-01-09T08:27:22.961Z,-8.27
2024-01-09T08:28:46.524Z,-8.31
2024-01-09T08:30:09.700Z,-8.36
2024-01-09T08:31:32.829Z,-8.24
2024-01-09T08:32:54.978Z,-8.22
2024-01-09T08:34:18.135Z,-8.25
2024-01-09T08:35:41.701Z,-8.00
2024-01-09T08:37:04.991Z,-8.53
2024-01-09T08:38:26.941Z,-8.53
2024-01-09T08:39:49.845Z,-8.65
2024-01-09T08:41:11.922Z,-8.40
2024-01-09T08:42:34.826Z,-8.15
2024-01-09T08:43:56.741Z,-8.40
2024-01-09T08:45:19.774Z,-8.33
2024-01-09T08:46:41.641Z,-8.62
2024-01-09T08:48:05.028Z,-8.80
2024-01-09T08:49:27.339Z,-8.25
2024-01-09T08:50:51.780Z,-8.00
2024-01-09T08:52:14.078Z,-7.77
2024-01-09T08:53:37.043Z,-7.70
2024-01-09T08:54:58.941Z,-7.52
2024-01-09T08:56:21.841Z,-7.72
2024-01-09T08:57:43.795Z,-8.13
2024-01-09T08:59:08.601Z,-8.46
2024-01-09T09:00:30.616Z,-8.39
2024-01-09T09:01:53.511Z,-8.11
2024-01-09T09:03:15.495Z,-7.94
2024-01-09T09:04:40.420Z,-7.97
2024-01-09T09:06:04.129Z,-8.14
2024-01-09T09:07:27.013Z,-8.16
2024-01-09T09:08:48.945Z,-8.32
2024-01-09T09:10:11.884Z,-8.24
2024-01-09T09:11:34.122Z,-7.78
2024-01-09T09:12:57.212Z,-7.86
2024-01-09T09:14:19.311Z,-8.01
2024-01-09T09:15:42.202Z,-7.99
2024-01-09T09:17:04.524Z,-7.80
2024-01-09T09:18:28.518Z,-8.08
2024-01-09T09:19:50.624Z,-8.06
2024-01-09T09:21:14.884Z,-7.76
2024-01-09T09:22:36.992Z,-7.93
2024-01-09T09:24:00.564Z,-8.15
2024-01-09T09:25:22.862Z,-8.19
2024-01-09T09:26:45.743Z,-7.67
2024-01-09T09:28:07.679Z,-7.49
2024-01-09T09:29:37.188Z,-7.64
2024-01-09T09:31:00.495Z,-7.78
2024-01-09T09:32:23.469Z,-8.02
2024-01-09T09:33:45.461Z,-7.95
2024-01-09T09:35:09.111Z,-8.17
2024-01-09T09:36:32.336Z,-7.98
2024-01-09T09:37:55.302Z,-7.52
2024-01-09T09:39:17.386Z,-7.18
2024-01-09T09:40:40.385Z,-7.25
2024-01-09T09:42:02.316Z,-7.31
2024-01-09T09:43:26.427Z,-7.11
2024-01-09T09:44:52.694Z,-6.86
2024-01-09T09:46:21.100Z,-6.77
2024-01-09T09:47:43.378Z,-7.28
2024-01-09T09:49:08.083Z,-7.07
2024-01-09T09:50:31.369Z,-6.84
2024-01-09T09:51:56.064Z,-6.93
2024-01-09T09:53:19.288Z,-7.02
2024-01-09T09:54:43.820Z,-7.00
2024-01-09T09:56:06.289Z,-7.11
2024-01-09T09:57:29.203Z,-7.42
2024-01-09T09:58:51.203Z,-7.40
2024-01-09T10:00:14.690Z,-7.04
2024-01-09T10:01:37.986Z,-6.83
2024-01-09T10:03:06.672Z,-6.85
2024-01-09T10:04:30.604Z,-7.05
2024-01-09T10:05:56.254Z,-7.08
2024-01-09T10:07:23.998Z,-7.07
2024-01-09T10:08:49.924Z,-6.71
2024-01-09T10:10:13.250Z,-6.53
2024-01-09T10:11:36.253Z,-6.33
2024-01-09T10:12:59.313Z,-5.98
2024-01-09T10:14:22.191Z,-5.83
2024-01-09T10:15:57.782Z,-5.67
2024-01-09T10:17:20.629Z,-5.76
2024-01-09T10:18:42.677Z,-5.57
2024-01-09T10:20:09.433Z,-5.23
2024-01-09T10:21:31.401Z,-4.87
2024-01-09T10:22:55.608Z,-5.49
2024-01-09T10:24:18.171Z,-4.65
2024-01-09T10:25:41.157Z,-3.56
2024-01-09T10:27:03.179Z,-3.30
2024-01-09T10:28:26.224Z,-2.60
2024-01-09T10:29:48.181Z,-2.42
2024-01-09T10:31:11.324Z,-2.80
2024-01-09T10:32:34.121Z,-2.62
2024-01-09T10:33:57.185Z,-2.67
2024-01-09T10:35:19.248Z,-2.41
2024-01-09T10:36:42.122Z,-1.56
2024-01-09T10:38:05.452Z,-0.81
2024-01-09T10:39:28.326Z,-0.05
2024-01-09T10:40:56.512Z,0.21
2024-01-09T10:42:20.131Z,-0.05
2024-01-09T10:43:42.366Z,-1.11
2024-01-09T10:45:10.579Z,-2.51
2024-01-09T10:46:35.050Z,-2.81
2024-01-09T10:47:59.672Z,-3.15
2024-01-09T10:49:23.738Z,-3.49
2024-01-09T10:50:47.245Z,-3.88
2024-01-09T10:52:12.943Z,-3.31
2024-01-09T10:53:40.727Z,-3.73
2024-01-09T10:55:06.394Z,-3.63
2024-01-09T10:56:30.441Z,-4.58
2024-01-09T10:57:52.565Z,-5.02
2024-01-09T10:59:16.385Z,-5.48
2024-01-09T11:00:43.540Z,-5.71
2024-01-09T11:02:06.974Z,-5.48
2024-01-09T11:03:29.019Z,-4.76
2024-01-09T11:04:52.026Z,-5.37
2024-01-09T11:06:16.385Z,-5.11
2024-01-09T11:07:39.630Z,-5.11
2024-01-09T11:09:05.719Z,-4.76
2024-01-09T11:10:29.652Z,-5.51
2024-01-09T11:11:53.094Z,-5.17
2024-01-09T11:13:19.957Z,-5.14
2024-01-09T11:14:44.636Z,-5.79
2024-01-09T11:16:09.885Z,-5.55
2024-01-09T11:17:34.741Z,-5.82
2024-01-09T11:18:58.231Z,-6.04
2024-01-09T11:20:20.811Z,-5.93
2024-01-09T11:21:43.811Z,-5.78
2024-01-09T11:23:05.885Z,-5.27
2024-01-09T11:24:30.142Z,-5.49
2024-01-09T11:25:52.179Z,-5.76
2024-01-09T11:27:16.201Z,-5.59
2024-01-09T11:28:39.705Z,-5.63
2024-01-09T11:30:06.806Z,-5.39
2024-01-09T11:31:30.909Z,-5.35
2024-01-09T11:32:53.871Z,-5.57
2024-01-09T11:34:27.679Z,-5.70
2024-01-09T11:35:50.899Z,-5.22
2024-01-09T11:37:13.983Z,-5.01
2024-01-09T11:38:37.151Z,-5.45
2024-01-09T11:40:01.077Z,-5.08
2024-01-09T11:41:25.299Z,-5.05
2024-01-09T11:42:51.891Z,-4.75
2024-01-09T11:44:17.404Z,-4.87
2024-01-09T11:45:40.772Z,-4.53
2024-01-09T11:47:04.162Z,-4.27
2024-01-09T11:48:26.255Z,-4.24
2024-01-09T11:49:49.288Z,-3.67
2024-01-09T11:51:12.392Z,-2.29
2024-01-09T11:52:36.078Z,-1.20
2024-01-09T11:54:00.075Z,0.37
2024-01-09T11:55:25.776Z,0.44
2024-01-09T11:56:48.793Z,1.81
2024-01-09T11:58:11.675Z,1.35
2024-01-09T11:59:34.682Z,2.41
2024-01-09T12:00:56.914Z,2.35
2024-01-09T12:02:20.885Z,2.33
2024-01-09T12:03:50.925Z,3.31
2024-01-09T12:05:14.102Z,3.47
2024-01-09T12:06:36.231Z,3.36
2024-01-09T12:07:59.345Z,2.74
2024-01-09T12:09:21.270Z,4.02
2024-01-09T12:10:48.903Z,3.73
2024-01-09T12:12:11.372Z,3.20
2024-01-09T12:13:34.260Z,4.65
2024-01-09T12:14:57.974Z,3.25
2024-01-09T12:16:22.824Z,3.37
2024-01-09T12:17:49.250Z,3.68
2024-01-09T12:19:17.350Z,5.02
2024-01-09T12:20:40.145Z,5.18
2024-01-09T12:22:03.084Z,3.94
2024-01-09T12:23:26.425Z,4.61
2024-01-09T12:24:52.213Z,5.07
2024-01-09T12:26:17.599Z,3.24
2024-01-09T12:27:41.024Z,3.26
2024-01-09T12:29:05.223Z,2.82
2024-01-09T12:30:28.454Z,3.84
2024-01-09T12:31:50.488Z,3.39
2024-01-09T12:33:14.480Z,3.61
2024-01-09T12:34:37.004Z,4.06
2024-01-09T12:36:00.000Z,5.05
2024-01-09T12:37:23.056Z,5.44
2024-01-09T12:38:46.925Z,5.35
2024-01-09T12:40:17.381Z,5.12
2024-01-09T12:41:41.129Z,5.37
2024-01-09T12:43:09.025Z,4.17
2024-01-09T12:44:30.926Z,3.95
2024-01-09T12:45:54.063Z,5.01
2024-01-09T12:47:16.322Z,4.19
2024-01-09T12:48:39.410Z,3.30
2024-01-09T12:50:04.861Z,3.63
2024-01-09T12:51:33.187Z,3.75
2024-01-09T12:52:55.095Z,5.45
2024-01-09T12:54:18.488Z,4.83
2024-01-09T12:55:40.544Z,3.19
2024-01-09T12:57:04.994Z,4.04
2024-01-09T12:58:27.008Z,4.38
2024-01-09T12:59:50.335Z,4.72
2024-01-09T13:01:12.724Z,3.28
2024-01-09T13:02:35.706Z,3.30
2024-01-09T13:03:57.775Z,2.18
2024-01-09T13:05:21.236Z,2.61
2024-01-09T13:06:44.336Z,2.57
2024-01-09T13:08:08.049Z,3.00
2024-01-09T13:09:30.673Z,2.18
2024-01-09T13:10:53.595Z,4.06
2024-01-09T13:12:17.881Z,5.04
2024-01-09T13:13:41.408Z,2.50
2024-01-09T13:15:03.780Z,2.36
2024-01-09T13:16:26.662Z,2.24
2024-01-09T13:17:49.106Z,2.16
2024-01-09T13:19:12.332Z,2.68
2024-01-09T13:20:34.471Z,2.52
2024-01-09T13:23:45.866Z,2.27
2024-01-09T13:23:49.189Z,-0.72
2024-01-09T13:25:13.957Z,-0.37
2024-01-09T13:26:37.218Z,-0.68
2024-01-09T13:28:00.412Z,-1.18
2024-01-09T13:30:52.668Z,-2.30
2024-01-09T13:32:16.764Z,-2.32
2024-01-09T13:33:39.226Z,-2.26
2024-01-09T13:35:02.742Z,-3.17
2024-01-09T13:36:24.854Z,-3.57
2024-01-09T13:37:47.758Z,-3.60
2024-01-09T13:39:15.346Z,-3.08
2024-01-09T13:40:38.582Z,-3.01
2024-01-09T13:42:04.240Z,-3.55
2024-01-09T13:43:28.890Z,-4.03
2024-01-09T13:44:51.341Z,-3.81
2024-01-09T13:46:15.257Z,-4.00
2024-01-09T13:47:39.515Z,-3.70
2024-01-09T13:49:03.821Z,-4.21
2024-01-09T13:51:47.514Z,-3.87
2024-01-09T13:52:09.117Z,-3.61
2024-01-09T13:53:31.234Z,-3.51
2024-01-09T13:54:54.865Z,-3.49
2024-01-09T13:56:16.996Z,-4.09
2024-01-09T13:57:39.892Z,-4.29
2024-01-09T13:59:04.860Z,-4.22
2024-01-09T14:00:28.613Z,-4.10
2024-01-09T14:01:51.196Z,-4.52
2024-01-09T14:03:14.359Z,-4.21
2024-01-09T14:04:36.300Z,-4.12
2024-01-09T14:05:59.687Z,-4.12
2024-01-09T14:07:21.680Z,-4.17
2024-01-09T14:08:44.640Z,-3.99
2024-01-09T14:10:10.756Z,-4.30
2024-01-09T14:11:33.678Z,-4.31
2024-01-09T14:12:55.625Z,-4.26
2024-01-09T14:14:23.782Z,-4.39
2024-01-09T14:15:45.789Z,-4.35
2024-01-09T14:17:08.814Z,-4.11
2024-01-09T14:18:32.348Z,-3.95
2024-01-09T14:19:54.676Z,-4.10
2024-01-09T14:21:17.890Z,-4.21
2024-01-09T14:22:39.996Z,-4.13
2024-01-09T14:24:03.100Z,-3.85
2024-01-09T14:25:25.214Z,-3.76
2024-01-09T14:26:49.126Z,-4.08
2024-01-09T14:28:11.098Z,-3.81
2024-01-09T14:29:35.368Z,-3.97
2024-01-09T14:30:59.836Z,-3.68
2024-01-09T14:32:23.249Z,-3.81
2024-01-09T14:33:46.483Z,-3.74
2024-01-09T14:35:10.010Z,-3.69
2024-01-09T14:36:33.929Z,-4.50
2024-01-09T14:37:56.849Z,-4.60
2024-01-09T14:39:18.738Z,-4.35
2024-01-09T14:40:41.726Z,-4.19
2024-01-09T14:42:04.219Z,-4.10
2024-01-09T14:43:27.605Z,-3.97
2024-01-09T14:44:55.951Z,-4.63
2024-01-09T14:46:19.472Z,-4.70
2024-01-09T14:47:41.454Z,-4.50
2024-01-09T14:49:04.406Z,-4.48
2024-01-09T14:50:26.770Z,-4.07
2024-01-09T14:51:50.268Z,-4.50
2024-01-09T14:53:12.281Z,-5.10
2024-01-09T14:54:38.659Z,-5.14
2024-01-09T14:56:00.843Z,-5.12
2024-01-09T14:57:24.766Z,-5.02
2024-01-09T14:58:46.882Z,-5.10
2024-01-09T15:00:13.756Z,-5.05
2024-01-09T15:01:37.529Z,-5.12
2024-01-09T15:03:01.299Z,-4.94
2024-01-09T15:04:23.183Z,-4.64
2024-01-09T15:05:46.121Z,-4.44
2024-01-09T15:07:08.310Z,-4.42
2024-01-09T15:08:31.170Z,-4.48
2024-01-09T15:09:53.051Z,-4.63
2024-01-09T15:11:16.314Z,-4.77
2024-01-09T15:12:38.305Z,-4.43
2024-01-09T15:14:01.202Z,-4.14
2024-01-09T15:15:24.602Z,-3.95
2024-01-09T15:16:47.562Z,-4.67
2024-01-09T15:18:09.612Z,-4.62
2024-01-09T15:19:32.694Z,-4.81
2024-01-09T15:20:54.687Z,-5.21
2024-01-09T15:22:17.901Z,-5.22
2024-01-09T15:23:39.895Z,-5.47
2024-01-09T15:25:02.824Z,-5.08
2024-01-09T15:26:24.717Z,-4.98
2024-01-09T15:27:47.611Z,-5.16
2024-01-09T15:29:10.118Z,-4.91
2024-01-09T15:30:34.456Z,-5.00
2024-01-09T15:31:56.759Z,-4.79
2024-01-09T15:33:20.010Z,-4.57
2024-01-09T15:34:42.813Z,-4.37
2024-01-09T15:36:06.538Z,-4.92
2024-01-09T15:37:28.553Z,-4.90
2024-01-09T15:38:55.273Z,-4.61
2024-01-09T15:40:18.176Z,-4.51
2024-01-09T15:41:41.966Z,-4.26
2024-01-09T15:43:05.114Z,-4.18
2024-01-09T15:44:27.064Z,-4.18
2024-01-09T15:45:51.313Z,-4.28
2024-01-09T15:47:13.348Z,-4.43
2024-01-09T15:48:36.389Z,-4.34
2024-01-09T15:49:59.357Z,-5.36
2024-01-09T15:51:22.810Z,-5.42
2024-01-09T15:52:44.697Z,-5.49
2024-01-09T15:54:08.287Z,-5.55
2024-01-09T15:55:30.260Z,-5.21
2024-01-09T15:56:55.598Z,-4.96
2024-01-09T15:58:18.616Z,-5.30
2024-01-09T15:59:41.879Z,-4.96
2024-01-09T16:01:05.290Z,-4.62
2024-01-09T16:02:28.257Z,-4.50
2024-01-09T16:03:51.622Z,-4.55
2024-01-09T16:05:15.050Z,-4.58
2024-01-09T16:06:37.100Z,-4.38
2024-01-09T16:07:59.980Z,-4.47
2024-01-09T16:09:22.387Z,-4.32
2024-01-09T16:10:45.261Z,-4.27
2024-01-09T16:12:07.610Z,-4.27
2024-01-09T16:13:30.738Z,-4.36
2024-01-09T16:14:53.376Z,-4.36
2024-01-09T16:16:19.250Z,-4.37
2024-01-09T16:17:41.627Z,-4.39
2024-01-09T16:19:06.591Z,-4.38
2024-01-09T16:20:28.634Z,-4.30
2024-01-09T16:21:53.312Z,-4.32
2024-01-09T16:23:15.253Z,-4.33
2024-01-09T16:24:38.281Z,-4.33
2024-01-09T16:26:03.014Z,-4.30
2024-01-09T16:27:26.046Z,-4.48
2024-01-09T16:28:48.129Z,-4.60
2024-01-09T16:30:13.009Z,-4.69
2024-01-09T16:31:39.034Z,-4.48
2024-01-09T16:33:02.127Z,-4.55
2024-01-09T16:34:24.454Z,-4.43
2024-01-09T16:35:47.421Z,-4.53
2024-01-09T16:37:10.203Z,-4.47
2024-01-09T16:38:33.330Z,-4.34
2024-01-09T16:39:58.964Z,-4.35
2024-01-09T16:41:21.070Z,-4.35
2024-01-09T16:42:44.011Z,-4.96
2024-01-09T16:44:05.979Z,-4.93
2024-01-09T16:45:29.177Z,-4.73
2024-01-09T16:46:54.022Z,-4.59
2024-01-09T16:48:28.607Z,-4.49
2024-01-09T16:49:59.205Z,-4.56
2024-01-09T16:51:22.922Z,-5.21
2024-01-09T16:52:49.793Z,-4.99
2024-01-09T16:54:13.161Z,-4.76
2024-01-09T16:55:35.165Z,-4.79
2024-01-09T16:56:58.063Z,-4.68
2024-01-09T16:58:22.185Z,-5.02
2024-01-09T16:59:45.020Z,-5.05
2024-01-09T17:01:07.300Z,-4.92
2024-01-09T17:02:31.790Z,-5.27
2024-01-09T17:03:54.094Z,-5.22
2024-01-09T17:05:17.181Z,-5.27
2024-01-09T17:06:39.145Z,-5.64
2024-01-09T17:08:02.199Z,-5.45
2024-01-09T17:09:24.442Z,-5.08
2024-01-09T17:10:47.540Z,-4.82
2024-01-09T17:12:09.762Z,-5.03
2024-01-09T17:13:32.773Z,-4.91
2024-01-09T17:14:58.343Z,-5.04
2024-01-09T17:16:22.849Z,-5.23
2024-01-09T17:17:46.250Z,-5.77
2024-01-09T17:19:09.248Z,-5.89
2024-01-09T17:20:33.543Z,-5.52
2024-01-09T17:21:57.347Z,-5.45
2024-01-09T17:23:19.398Z,-5.30
2024-01-09T17:24:44.561Z,-5.48
2024-01-09T17:26:06.744Z,-5.53
2024-01-09T17:27:29.656Z,-6.21
2024-01-09T17:28:51.574Z,-6.39
2024-01-09T17:30:15.554Z,-6.02
2024-01-09T17:31:37.574Z,-5.99
2024-01-09T17:33:03.138Z,-6.57
2024-01-09T17:34:25.117Z,-6.56
2024-01-09T17:35:49.715Z,-6.49
2024-01-09T17:37:11.680Z,-6.40
2024-01-09T17:38:34.505Z,-6.37
2024-01-09T17:39:56.594Z,-6.06
2024-01-09T17:41:19.583Z,-6.48
2024-01-09T17:42:41.613Z,-6.66
2024-01-09T17:44:05.687Z,-7.08
2024-01-09T17:45:28.850Z,-6.99
2024-01-09T17:46:52.702Z,-7.04
2024-01-09T17:48:17.037Z,-6.56
2024-01-09T17:49:40.117Z,-6.68
2024-01-09T17:51:02.274Z,-6.46
2024-01-09T17:52:27.261Z,-6.45
2024-01-09T17:53:51.867Z,-6.45
2024-01-09T17:55:15.829Z,-6.51
2024-01-09T17:56:37.908Z,-6.22
2024-01-09T17:58:00.955Z,-6.02